Skip Navigation LinksHome page > Weather > Current weather Skip Navigation Links

Current Weather

Rock Co, Janesville, Wis.

For information only: do not use for flight planning or navigation.
Latest weather
Observation time Wednesday, October 27, 2021 1:35 AM CDT
Local time Wednesday, October 27, 2021 1:58 AM CDT
Flight conditions Low Instrument Meteorological Conditions
Winds
Wind speed calm
Visibility 0.75 mi.
Present weather mist
Sky condition
Ceiling 500 ft. indefinite
Cloud layer vertical visibility 500 ft.
Temperature 34°F
Dewpoint 34°F
Altimeter 30.02 in.Hg
Derived measurements
Relative humidity 100%
Wind chill 34°F
Density altitude -915 ft.
Remarks
Fully automated report.
Automated weather observing station with precipitation discriminator.
METAR KJVL 270635Z AUTO 00000KT 3/4SM BR VV005 01/01 A3002 RMK AO2

Settings

Location code

InnerDrive.Weather 4.0.6770.0 Release CLR 4.0.30319.42000
Copyright ©2018 Inner Drive Technology. All rights reserved. Portions Copyright ©1986-2018 David Braverman.

Find weather

Site navigation


Skip Navigation Links

Place info

Page info

PayPal - The safer, easier way to pay online!

Return home.

Copyright ©2021 Inner Drive Technology. Purveyors of fine, hand-crafted computer software. Page printed 2021-10-27T06:58:40 UTC.